Whiteville, Arkansas
Current Conditions -  °F | °C
As of 7:53 AM on Thursday 27 Nov 2014 (Local Time) from KBPK Reporting Station
Haze Haze  
Wind Chill: 29°   Ceiling: 2100
Heat Index: 33°   Visibility: 6mi
Dew Point: 25°   Wind: 5mph
Humidity: 72%   Direction: NA
Pressure: 30.47"   Gusts: NA
Location:  36.3299°N, 92.4805°W
Report Text: KBPK 271353Z AUTO VRB04KT 6SM HZ OVC021 01/M04 A3047 RMK AO2 SLP325 T00061039
Loading
Personal Weather Stations






























Interactive Weather Map New forecast layout! Learn more

10-Day Weather Forecast

Advertisements
Track Severe Weather on mobile